This is the latest recevied weather packets stored in our database for station/object 5B4APJ-13. If no packets are shown the sender has not sent any weather packets the latest 10 day(s).
| Time | Temp. | Humidity | Pressure | Rain* | Wind** | Luminosity | Snow |
|---|---|---|---|---|---|---|---|
| 1777826825 | 13.33° C | 64% | 1008.4 hPa | 0 mm | 0.89 m/s, 243° | 0 W/m² | - |
| 1777826525 | 13.33° C | 64% | 1008.2 hPa | 0 mm | 1.79 m/s, 238° | 1 W/m² | - |
| 1777826226 | 13.33° C | 63% | 1008.2 hPa | 0 mm | 4.92 m/s, 251° | 2 W/m² | - |
| 1777825925 | 13.33° C | 63% | 1008 hPa | 0 mm | 0.89 m/s, 257° | 3 W/m² | - |
| 1777825625 | 13.33° C | 62% | 1008.1 hPa | 0 mm | 4.47 m/s, 296° | 6 W/m² | - |
| 1777825025 | 13.33° C | 63% | 1007.9 hPa | 0 mm | 2.68 m/s, 237° | 11 W/m² | - |
| 1777824725 | 13.33° C | 63% | 1007.7 hPa | 0 mm | 1.79 m/s, 240° | 13 W/m² | - |
| 1777824426 | 13.33° C | 60% | 1007.9 hPa | 0 mm | 3.58 m/s, 243° | 16 W/m² | - |
| 1777824125 | 13.89° C | 61% | 1007.6 hPa | 0 mm | 1.79 m/s, 241° | 19 W/m² | - |
| 1777823825 | 13.89° C | 59% | 1007.9 hPa | 0 mm | 3.13 m/s, 234° | 24 W/m² | - |
| 1777823525 | 13.89° C | 60% | 1007.8 hPa | 0 mm | 4.02 m/s, 256° | 27 W/m² | - |
| 1777823226 | 13.89° C | 61% | 1007.9 hPa | 0 mm | 1.79 m/s, 238° | 50 W/m² | - |
| 1777822925 | 14.44° C | 59% | 1007.8 hPa | 0 mm | 4.02 m/s, 252° | 36 W/m² | - |
| 1777822626 | 14.44° C | 58% | 1008 hPa | 0 mm | 3.58 m/s, 258° | 59 W/m² | - |
| 1777822325 | 14.44° C | 57% | 1007.6 hPa | 0 mm | 4.47 m/s, 226° | 37 W/m² | - |
| 1777822025 | 15° C | 55% | 1007.4 hPa | 0 mm | 5.81 m/s, 238° | 86 W/m² | - |
| 1777821725 | 15° C | 55% | 1007.7 hPa | 0 mm | 5.81 m/s, 250° | 100 W/m² | - |
| 1777821425 | 15.56° C | 53% | 1007.5 hPa | 0 mm | 5.81 m/s, 256° | 54 W/m² | - |
| 1777821125 | 15.56° C | 54% | 1007.5 hPa | 0 mm | 3.13 m/s, 232° | 121 W/m² | - |
| 1777820826 | 15.56° C | 53% | 1007.7 hPa | 0 mm | 4.02 m/s, 217° | 127 W/m² | - |
| 1777820525 | 15.56° C | 54% | 1007.6 hPa | 0 mm | 6.71 m/s, 270° | 114 W/m² | - |
| 1777820225 | 15.56° C | 57% | 1007.5 hPa | 0 mm | 2.68 m/s, 234° | 169 W/m² | - |
| 1777819925 | 15.56° C | 58% | 1007.6 hPa | 0 mm | 2.68 m/s, 253° | 185 W/m² | - |
| 1777819625 | 15.56° C | 60% | 1007.5 hPa | 0 mm | 3.58 m/s, 248° | 196 W/m² | - |
| 1777819325 | 15.56° C | 61% | 1007.5 hPa | 0 mm | 4.02 m/s, 236° | 194 W/m² | - |
* Rain latest hour (hover to see other rain measurements)
** Current wind speed in m/s (hover to see current wind gust speed)